Pennington, AL (36916)

1:39 PM CDT on May 24, 2015 (GMT -0500)
KALBUTLE3 | | Change Station
CLOSE
Current Station
Personal Weather Station
Location: Butler, AL
Elevation: 183 ft
Nearby Weather Stations

Elev 183 ft 32.10 °N, 88.20 °W | Updated 9 minutes ago

Overcast
Overcast
87.4 °F
Feels Like 100 °F
N
1.3
Wind Variable Wind from SSE
Gusts 1.3 mph

Today
High -- | Low -- °F
--% Chance of Precip.
Yesterday
High -- | Low -- °F
Precip. -- in
5:49 AM 7:49 PM
Waxing Crescent, 41% visible
Pressure 30.14 in
Visibility 10.0 miles
Clouds Few 3800 ft
Scattered Clouds 4800 ft
Heat Index 100 °F
Dew Point 77 °F
Humidity 73%
Rainfall 0.00 in
Snow Depth Not available.
UV 10 out of 12
Pollen 6.30 out of 12
Air Quality Not available.
Flu Activity Sporadic
METAR KNMM 241756Z AUTO 14012G17KT 10SM FEW038 SCT048 30/21 A3013 RMK AO2 SLP207 T03000206 10306 20194 58016 $

More Conditions Fewer Conditions

Pressure 30.14 in
Visibility 10.0 miles
Clouds Few 3800 ft
Scattered Clouds 4800 ft
Heat Index 100 °F
Dew Point 77 °F
Humidity 73%
Rainfall 0.00 in
Snow Depth Not available.
UV 10 out of 12
Pollen 6.30 out of 12
Air Quality Not available.
Flu Activity Sporadic
METAR KNMM 241756Z AUTO 14012G17KT 10SM FEW038 SCT048 30/21 A3013 RMK AO2 SLP207 T03000206 10306 20194 58016 $

More Conditions Fewer Conditions

10-Day Weather Forecast

Almanac

Astronomy

May. 24, 2015 Rise Set
Actual Time
Civil Twilight
Nautical Twilight
Astronomical Twilight
Moon
Length of Visible Light
Length of Day
Tomorrow will be .
, % of the Moon is Illuminated

Today's Extremes

State Highs State Lows

Community

WunderPhotos

Upload Photos

1,823,820 photos uploaded!

WunderBlogs® & News

Nearby

Air Quality

  Air Quality AQ Index Pollutant
Not available.

Snow Depth

Station Depth Elevation

Earthquake Activity

City Distance Mag. Time & Date
Minimum magnitude displayed is 2.5.

Coastal Water Temperatures

Place Temperature

Stations

Nearby Weather Stations

Station Location Temp. Windchill Dew Point Humidity Wind Precip. Elev Updated Type